Time;durP1;ratioP1;P1;durP2;ratioP2;P2;SDS_P1;SDS_P2;PMS_P1;PMS_P2;Temp;Humidity;BMP_temperature;BMP_pressure;BME280_temperature;BME280_humidity;BME280_pressure;Samples;Min_cycle;Max_cycle;Signal;HPM_P1;HPM_P2
2023/04/08 00:01:43;;;;;;;8.53;6.10;;;3.40;99.90;;;;;;4879344;29;20033;-70
2023/04/08 00:04:09;;;;;;;9.83;6.20;;;3.40;99.90;;;;;;4862049;29;20051;-70
2023/04/08 00:06:35;;;;;;;8.67;6.03;;;3.30;99.90;;;;;;4874136;29;20044;-70
2023/04/08 00:09:02;;;;;;;9.85;6.05;;;3.30;99.90;;;;;;4879716;29;20704;-70
2023/04/08 00:11:27;;;;;;;8.65;5.68;;;3.30;99.90;;;;;;4879480;29;20623;-70
2023/04/08 00:13:53;;;;;;;10.63;5.60;;;3.30;99.90;;;;;;4879786;29;20060;-70
2023/04/08 00:16:19;;;;;;;9.97;5.47;;;3.30;99.90;;;;;;4877094;29;20519;-71
2023/04/08 00:18:45;;;;;;;8.53;5.90;;;3.30;99.90;;;;;;4879880;29;20312;-71
2023/04/08 00:21:10;;;;;;;8.23;5.40;;;3.20;99.90;;;;;;4880608;29;20047;-71
2023/04/08 00:23:36;;;;;;;8.63;5.90;;;3.30;99.90;;;;;;4880090;29;20056;-71
2023/04/08 00:26:02;;;;;;;7.57;5.77;;;3.30;99.90;;;;;;4879809;29;20036;-70
2023/04/08 00:28:27;;;;;;;9.43;6.43;;;3.30;99.90;;;;;;4880010;29;20135;-70
2023/04/08 00:30:53;;;;;;;8.47;5.90;;;3.30;99.90;;;;;;4880361;29;20048;-70
2023/04/08 00:33:19;;;;;;;9.83;5.90;;;3.20;99.90;;;;;;4879777;29;20179;-70
2023/04/08 00:35:45;;;;;;;10.47;5.43;;;3.30;99.90;;;;;;4879662;29;20798;-70
2023/04/08 00:38:10;;;;;;;9.40;6.00;;;3.30;99.90;;;;;;4878988;29;20036;-70
2023/04/08 00:40:36;;;;;;;8.93;5.90;;;3.30;99.90;;;;;;4864486;29;20045;-70
2023/04/08 00:43:02;;;;;;;10.03;6.23;;;3.20;99.90;;;;;;4876123;29;20040;-70
2023/04/08 00:45:27;;;;;;;10.47;5.90;;;3.10;99.90;;;;;;4879835;29;20564;-71
2023/04/08 00:47:53;;;;;;;13.47;7.40;;;3.10;99.90;;;;;;4862072;29;20062;-71
2023/04/08 00:50:19;;;;;;;12.57;5.93;;;3.10;99.90;;;;;;4864433;29;20049;-71
2023/04/08 00:52:45;;;;;;;10.13;5.93;;;3.10;99.90;;;;;;4878399;29;20111;-71
2023/04/08 00:55:10;;;;;;;10.23;6.37;;;3.00;99.90;;;;;;4879201;29;20036;-71
2023/04/08 00:57:36;;;;;;;10.67;7.17;;;3.00;99.90;;;;;;4879937;29;20512;-71
2023/04/08 01:00:05;;;;;;;11.47;6.73;;;3.00;99.90;;;;;;4879459;29;20051;-70
2023/04/08 01:02:56;;;;;;;12.10;6.82;;;3.00;99.90;;;;;;4871970;29;20053;-71
2023/04/08 01:05:42;;;;;;;8.48;6.30;;;3.00;99.90;;;;;;4857461;29;20132;-70
2023/04/08 01:08:10;;;;;;;12.00;7.00;;;3.00;99.90;;;;;;4875814;29;20438;-70
2023/04/08 01:10:38;;;;;;;11.75;6.93;;;3.00;99.90;;;;;;4877375;29;20044;-70
2023/04/08 01:13:10;;;;;;;10.02;6.90;;;3.00;99.90;;;;;;4879391;29;20064;-70
2023/04/08 01:15:40;;;;;;;11.90;7.30;;;3.00;99.90;;;;;;4878369;29;20052;-70
2023/04/08 01:18:12;;;;;;;11.48;7.13;;;3.00;99.90;;;;;;4879023;29;20139;-70
2023/04/08 01:20:40;;;;;;;11.95;6.88;;;2.90;99.90;;;;;;4879172;29;20085;-70
2023/04/08 01:23:28;;;;;;;9.07;6.38;;;2.90;99.90;;;;;;4879481;29;20041;-71
2023/04/08 01:25:55;;;;;;;12.25;7.30;;;2.80;99.90;;;;;;4879395;29;20461;-70
2023/04/08 01:28:24;;;;;;;11.40;7.40;;;2.80;99.90;;;;;;4879487;29;20048;-70
2023/04/08 01:30:51;;;;;;;12.02;7.10;;;2.70;99.90;;;;;;4878300;29;20049;-70
2023/04/08 01:33:17;;;;;;;11.77;7.32;;;2.70;99.90;;;;;;4875401;29;20052;-70
2023/04/08 01:35:44;;;;;;;11.45;7.13;;;2.70;99.90;;;;;;4878944;29;20482;-70
2023/04/08 01:38:17;;;;;;;10.15;6.82;;;2.70;99.90;;;;;;4879026;29;20045;-70
2023/04/08 01:40:45;;;;;;;10.25;7.13;;;2.70;99.90;;;;;;4877809;29;20063;-71
2023/04/08 01:43:13;;;;;;;11.95;7.40;;;2.60;99.90;;;;;;4878878;29;20048;-70
2023/04/08 01:45:39;;;;;;;13.55;7.53;;;2.60;99.90;;;;;;4878937;29;20048;-70
2023/04/08 01:48:06;;;;;;;12.20;8.32;;;2.50;99.90;;;;;;4876369;29;20049;-70
2023/04/08 01:50:33;;;;;;;12.30;7.93;;;2.50;99.90;;;;;;4870564;29;20073;-70
2023/04/08 01:52:59;;;;;;;13.23;8.30;;;2.50;99.90;;;;;;4877613;29;20069;-70
2023/04/08 01:55:26;;;;;;;13.88;8.43;;;2.40;99.90;;;;;;4873906;29;20079;-70
2023/04/08 01:57:55;;;;;;;14.98;8.95;;;2.40;99.90;;;;;;4878794;29;20482;-70
2023/04/08 02:00:26;;;;;;;14.52;9.10;;;2.50;99.90;;;;;;4874060;29;20056;-70
2023/04/08 02:02:54;;;;;;;14.70;8.70;;;2.50;99.90;;;;;;4877028;29;20045;-70
2023/04/08 02:05:20;;;;;;;15.88;9.85;;;2.50;99.90;;;;;;4878312;29;20155;-69
2023/04/08 02:07:49;;;;;;;17.42;10.48;;;2.50;99.90;;;;;;4878020;29;20132;-69
2023/04/08 02:10:15;;;;;;;15.07;10.23;;;2.40;99.90;;;;;;4878453;29;20076;-71
2023/04/08 02:12:43;;;;;;;14.23;9.70;;;2.40;99.90;;;;;;4877843;29;20040;-70
2023/04/08 02:15:10;;;;;;;14.52;9.77;;;2.40;99.90;;;;;;4878579;29;20087;-70
2023/04/08 02:17:43;;;;;;;16.75;10.23;;;2.40;99.90;;;;;;4876528;29;20056;-70
2023/04/08 02:20:22;;;;;;;12.70;9.00;;;2.30;99.90;;;;;;4877980;29;20048;-70
2023/04/08 02:22:55;;;;;;;17.23;10.50;;;2.30;99.90;;;;;;4878454;29;20055;-70
2023/04/08 02:25:24;;;;;;;17.63;10.98;;;2.40;99.90;;;;;;4876042;29;20051;-70
2023/04/08 02:27:51;;;;;;;15.63;10.27;;;2.40;99.90;;;;;;4871503;29;20192;-70
2023/04/08 02:30:18;;;;;;;17.38;11.32;;;2.30;99.90;;;;;;4877641;29;20131;-70
2023/04/08 02:32:45;;;;;;;20.52;11.52;;;2.30;99.90;;;;;;4878899;29;20055;-70
2023/04/08 02:35:13;;;;;;;15.93;10.40;;;2.30;99.90;;;;;;4878253;29;20080;-70
2023/04/08 02:37:39;;;;;;;16.98;10.73;;;2.20;99.90;;;;;;4861370;29;20144;-70
2023/04/08 02:40:25;;;;;;;17.48;11.45;;;2.20;99.90;;;;;;4878058;29;20044;-70
2023/04/08 02:42:51;;;;;;;16.80;11.43;;;2.30;99.90;;;;;;4877538;29;20068;-70
2023/04/08 02:45:17;;;;;;;20.07;12.73;;;2.20;99.90;;;;;;4878526;29;20140;-70
2023/04/08 02:47:43;;;;;;;20.20;12.32;;;2.20;99.90;;;;;;4874489;29;20096;-70
2023/04/08 02:50:09;;;;;;;20.87;12.77;;;2.10;99.90;;;;;;4878686;29;20489;-70
2023/04/08 02:52:35;;;;;;;17.83;11.75;;;2.10;99.90;;;;;;4877462;29;20171;-70
2023/04/08 02:55:01;;;;;;;19.90;12.20;;;2.10;99.90;;;;;;4877628;29;20613;-70
2023/04/08 02:57:26;;;;;;;18.23;11.63;;;2.10;99.90;;;;;;4877633;29;20040;-70
2023/04/08 02:59:52;;;;;;;18.40;12.00;;;2.10;99.90;;;;;;4878264;29;20119;-70
2023/04/08 03:02:18;;;;;;;19.77;12.17;;;2.00;99.90;;;;;;4876890;29;20044;-70
2023/04/08 03:04:43;;;;;;;20.87;12.73;;;2.00;99.90;;;;;;4877738;29;20037;-70
2023/04/08 03:07:09;;;;;;;20.37;13.03;;;2.00;99.90;;;;;;4878021;29;20075;-70
2023/04/08 03:09:35;;;;;;;20.33;13.23;;;2.00;99.90;;;;;;4876456;29;20040;-70
2023/04/08 03:12:01;;;;;;;20.83;13.13;;;2.00;99.90;;;;;;4872304;29;20131;-70
2023/04/08 03:14:27;;;;;;;20.60;13.43;;;2.00;99.90;;;;;;4877304;29;20045;-70
2023/04/08 03:16:52;;;;;;;24.03;13.50;;;2.00;99.90;;;;;;4877611;29;20545;-70
2023/04/08 03:19:18;;;;;;;19.70;12.47;;;2.00;99.90;;;;;;4865979;29;20123;-70
2023/04/08 03:21:44;;;;;;;20.27;13.57;;;2.00;99.90;;;;;;4873956;29;20056;-70
2023/04/08 03:24:10;;;;;;;23.33;13.37;;;1.90;99.90;;;;;;4881359;29;20076;-70
2023/04/08 03:26:35;;;;;;;22.30;14.23;;;1.90;99.90;;;;;;4881281;29;20055;-70
2023/04/08 03:29:01;;;;;;;21.97;13.47;;;1.90;99.90;;;;;;4865890;29;20293;-70
2023/04/08 03:31:27;;;;;;;22.93;14.23;;;1.90;99.90;;;;;;4881773;29;20510;-70
2023/04/08 03:33:52;;;;;;;23.57;14.10;;;1.90;99.90;;;;;;4880868;29;20051;-70
2023/04/08 03:36:18;;;;;;;24.83;15.00;;;1.90;99.90;;;;;;4880933;29;20064;-70
2023/04/08 03:38:44;;;;;;;25.87;15.37;;;1.80;99.90;;;;;;4866165;29;20051;-70
2023/04/08 03:41:10;;;;;;;25.07;14.97;;;1.80;99.90;;;;;;4880733;29;20092;-70
2023/04/08 03:43:35;;;;;;;24.73;14.83;;;1.80;99.90;;;;;;4865710;29;20040;-70
2023/04/08 03:46:01;;;;;;;26.73;15.73;;;1.80;99.90;;;;;;4881037;29;20502;-70
2023/04/08 03:48:27;;;;;;;27.40;15.13;;;1.80;99.90;;;;;;4879600;29;20166;-70
2023/04/08 03:50:53;;;;;;;25.70;15.53;;;1.90;99.90;;;;;;4880323;29;20198;-70
2023/04/08 03:53:18;;;;;;;26.07;17.13;;;1.90;99.90;;;;;;4880626;29;20425;-70
2023/04/08 03:55:44;;;;;;;25.13;15.73;;;1.90;99.90;;;;;;4865223;29;20092;-70
2023/04/08 03:58:10;;;;;;;25.95;16.73;;;1.90;99.90;;;;;;4876814;29;20040;-70
2023/04/08 04:00:36;;;;;;;29.17;17.50;;;1.90;99.90;;;;;;4880926;29;20052;-70
2023/04/08 04:03:02;;;;;;;28.53;16.67;;;1.90;99.90;;;;;;4880845;29;20071;-70
2023/04/08 04:05:28;;;;;;;28.27;16.40;;;1.80;99.90;;;;;;4878403;29;20044;-70
2023/04/08 04:07:53;;;;;;;30.83;16.98;;;1.90;99.90;;;;;;4880670;29;20044;-70
2023/04/08 04:10:19;;;;;;;31.30;17.10;;;1.90;99.90;;;;;;4880153;29;20072;-70
2023/04/08 04:12:46;;;;;;;30.30;17.63;;;1.90;99.90;;;;;;4880364;29;20047;-70
2023/04/08 04:15:12;;;;;;;29.88;18.15;;;1.90;99.90;;;;;;4881275;29;20044;-70
2023/04/08 04:17:37;;;;;;;28.47;17.43;;;1.80;99.90;;;;;;4872721;29;20052;-70
2023/04/08 04:20:06;;;;;;;31.30;18.17;;;1.90;99.90;;;;;;4887010;29;20071;-70
2023/04/08 04:22:32;;;;;;;34.13;18.00;;;1.90;99.90;;;;;;4879368;29;20124;-70
2023/04/08 04:24:58;;;;;;;32.03;18.17;;;1.90;99.90;;;;;;4865572;29;20072;-70
2023/04/08 04:27:23;;;;;;;34.07;18.77;;;1.90;99.90;;;;;;4856903;29;20048;-70
2023/04/08 04:29:49;;;;;;;35.83;20.33;;;1.90;99.90;;;;;;4880444;29;20528;-70
2023/04/08 04:32:15;;;;;;;32.47;18.53;;;1.90;99.90;;;;;;4863722;29;20028;-70
2023/04/08 04:34:41;;;;;;;35.97;19.67;;;1.90;99.90;;;;;;4880042;29;20124;-70
2023/04/08 04:37:06;;;;;;;29.97;17.90;;;1.80;99.90;;;;;;4880343;29;20036;-70
2023/04/08 04:39:32;;;;;;;32.90;18.80;;;1.80;99.90;;;;;;4879915;29;20525;-70
2023/04/08 04:41:58;;;;;;;33.83;19.27;;;1.80;99.90;;;;;;4880482;29;20044;-70
2023/04/08 04:44:24;;;;;;;30.23;18.40;;;1.70;99.90;;;;;;4879867;29;20569;-70
2023/04/08 04:46:50;;;;;;;33.10;18.45;;;1.70;99.90;;;;;;4877235;29;20048;-71
2023/04/08 04:49:15;;;;;;;33.87;19.40;;;1.70;99.90;;;;;;4878806;29;20037;-70
2023/04/08 04:51:41;;;;;;;35.03;20.50;;;1.70;99.90;;;;;;4879305;29;20103;-70
2023/04/08 04:54:07;;;;;;;32.23;19.40;;;1.70;99.90;;;;;;4879041;29;20049;-70
2023/04/08 04:56:33;;;;;;;34.77;19.97;;;1.70;99.90;;;;;;4877584;29;20127;-70
2023/04/08 04:58:58;;;;;;;35.00;20.10;;;1.70;99.90;;;;;;4864100;29;20159;-70
2023/04/08 05:01:24;;;;;;;35.60;20.70;;;1.60;99.90;;;;;;4879462;29;20305;-70
2023/04/08 05:03:50;;;;;;;35.63;21.40;;;1.70;99.90;;;;;;4877792;29;20480;-70
2023/04/08 05:06:15;;;;;;;38.33;21.50;;;1.70;99.90;;;;;;4878983;29;20147;-70
2023/04/08 05:08:41;;;;;;;37.90;21.10;;;1.70;99.90;;;;;;4879443;29;20048;-70
2023/04/08 05:11:10;;;;;;;42.43;21.90;;;1.70;99.90;;;;;;4879610;29;20055;-70
2023/04/08 05:13:36;;;;;;;38.75;23.08;;;1.80;99.90;;;;;;4879532;29;20056;-70
2023/04/08 05:16:01;;;;;;;40.23;22.47;;;1.80;99.90;;;;;;4871557;29;20040;-70
2023/04/08 05:18:27;;;;;;;37.97;21.97;;;1.90;99.90;;;;;;4878896;29;20068;-71
2023/04/08 05:20:53;;;;;;;34.40;20.80;;;1.90;99.90;;;;;;4879708;29;20059;-70
2023/04/08 05:23:18;;;;;;;42.10;23.57;;;1.90;99.90;;;;;;4879323;29;20045;-70
2023/04/08 05:25:44;;;;;;;42.53;23.33;;;1.90;99.90;;;;;;4879980;29;20052;-70
2023/04/08 05:28:11;;;;;;;42.72;23.23;;;2.00;99.90;;;;;;4874884;29;20045;-70
2023/04/08 05:30:36;;;;;;;39.05;22.05;;;2.00;99.90;;;;;;4863915;29;20045;-70
2023/04/08 05:33:02;;;;;;;38.20;22.40;;;2.10;99.90;;;;;;4879659;29;20055;-70
2023/04/08 05:35:28;;;;;;;39.57;23.03;;;2.10;99.90;;;;;;4879222;29;20052;-70
2023/04/08 05:37:54;;;;;;;39.93;23.30;;;2.10;99.90;;;;;;4863294;29;20041;-70
2023/04/08 05:40:20;;;;;;;39.60;23.23;;;2.20;99.90;;;;;;4874381;29;20041;-70
2023/04/08 05:42:45;;;;;;;41.43;24.20;;;2.30;99.90;;;;;;4863472;29;20045;-70
2023/04/08 05:45:11;;;;;;;38.30;22.30;;;2.30;99.90;;;;;;4864148;29;20040;-70
2023/04/08 05:47:37;;;;;;;39.10;22.87;;;2.40;99.90;;;;;;4879434;29;20052;-70
2023/04/08 05:50:03;;;;;;;39.50;24.43;;;2.50;99.90;;;;;;4878922;29;20040;-70
2023/04/08 05:52:28;;;;;;;40.17;23.03;;;2.50;99.90;;;;;;4876380;29;20115;-70
2023/04/08 05:54:54;;;;;;;41.80;24.33;;;2.60;99.90;;;;;;4879304;29;20285;-70
2023/04/08 05:57:20;;;;;;;39.07;23.57;;;2.60;99.90;;;;;;4878743;29;20123;-70
2023/04/08 05:59:45;;;;;;;40.10;22.90;;;2.70;99.90;;;;;;4879381;29;20048;-70
2023/04/08 06:02:11;;;;;;;40.53;23.37;;;2.80;99.90;;;;;;4875743;29;20037;-70
2023/04/08 06:04:37;;;;;;;44.43;25.10;;;2.90;99.90;;;;;;4877441;29;20096;-70
2023/04/08 06:07:04;;;;;;;43.43;24.00;;;2.90;99.90;;;;;;4877262;29;20052;-70
2023/04/08 06:09:29;;;;;;;44.28;24.15;;;3.00;99.90;;;;;;4878751;29;20052;-71
2023/04/08 06:11:56;;;;;;;44.17;25.33;;;3.00;99.90;;;;;;4877597;29;20134;-71
2023/04/08 06:14:21;;;;;;;41.22;24.17;;;3.10;99.90;;;;;;4878371;29;20052;-71
2023/04/08 06:16:47;;;;;;;44.23;25.93;;;3.20;99.90;;;;;;4878019;29;20063;-71
2023/04/08 06:19:13;;;;;;;44.63;24.13;;;3.30;99.90;;;;;;4887747;29;20045;-71
2023/04/08 06:21:39;;;;;;;43.50;24.00;;;3.40;99.90;;;;;;4871307;29;20477;-71
2023/04/08 06:24:05;;;;;;;38.57;24.53;;;3.50;99.90;;;;;;4874370;29;20045;-71
2023/04/08 06:26:30;;;;;;;45.35;24.83;;;3.50;99.90;;;;;;4879016;29;20602;-71
2023/04/08 06:28:56;;;;;;;45.37;26.43;;;3.60;99.90;;;;;;4873785;29;20049;-71
2023/04/08 06:31:22;;;;;;;41.03;24.23;;;3.70;99.90;;;;;;4872902;29;20561;-71
2023/04/08 06:33:47;;;;;;;41.07;25.33;;;3.70;99.90;;;;;;4877265;29;20135;-71
2023/04/08 06:36:13;;;;;;;37.07;23.83;;;3.70;99.90;;;;;;4874591;29;20045;-71
2023/04/08 06:38:39;;;;;;;40.03;24.73;;;3.70;99.90;;;;;;4877772;29;20041;-71
2023/04/08 06:41:05;;;;;;;44.33;26.03;;;3.70;99.90;;;;;;4878291;29;20127;-71
2023/04/08 06:43:32;;;;;;;41.13;25.75;;;3.80;99.90;;;;;;4865599;29;20112;-71
2023/04/08 06:45:58;;;;;;;41.38;25.98;;;3.80;99.90;;;;;;4878155;29;20087;-71
2023/04/08 06:48:29;;;;;;;40.97;24.23;;;3.90;99.90;;;;;;4874676;29;20144;-72
2023/04/08 06:50:59;;;;;;;41.90;25.27;;;4.00;99.90;;;;;;4876857;29;20059;-72
2023/04/08 06:53:28;;;;;;;40.08;24.92;;;4.10;99.90;;;;;;4876569;29;20128;-72
2023/04/08 06:55:54;;;;;;;39.88;25.38;;;4.20;99.90;;;;;;4878625;29;20402;-72
2023/04/08 06:58:20;;;;;;;41.28;25.90;;;4.40;99.90;;;;;;4879381;29;20040;-72
2023/04/08 07:00:46;;;;;;;43.00;26.17;;;4.50;99.90;;;;;;4863282;29;20041;-72
2023/04/08 07:03:12;;;;;;;43.95;27.50;;;4.70;99.90;;;;;;4878414;29;20084;-72
2023/04/08 07:05:37;;;;;;;43.03;27.63;;;4.90;99.90;;;;;;4877795;29;20450;-71
2023/04/08 07:08:04;;;;;;;52.67;29.17;;;5.20;99.90;;;;;;4880052;29;20063;-72
2023/04/08 07:10:30;;;;;;;62.78;35.60;;;5.40;99.90;;;;;;4880621;29;20676;-72
2023/04/08 07:12:56;;;;;;;56.83;32.97;;;5.60;99.90;;;;;;4878568;29;20047;-72
2023/04/08 07:15:22;;;;;;;41.63;25.95;;;5.70;99.90;;;;;;4875625;29;20045;-72
2023/04/08 07:17:48;;;;;;;35.40;23.37;;;5.80;99.90;;;;;;4855520;29;20118;-73
2023/04/08 07:20:13;;;;;;;33.97;21.97;;;5.90;99.90;;;;;;4872345;29;20048;-72
2023/04/08 07:22:39;;;;;;;32.67;21.30;;;5.90;99.90;;;;;;4874138;29;20040;-72
2023/04/08 07:25:05;;;;;;;32.90;21.67;;;5.90;99.90;;;;;;4871171;29;20032;-73
2023/04/08 07:27:33;;;;;;;32.25;21.70;;;5.90;99.90;;;;;;4871898;29;20037;-72
2023/04/08 07:29:58;;;;;;;31.27;21.42;;;5.90;99.90;;;;;;4874214;29;20049;-72
2023/04/08 07:32:24;;;;;;;30.67;21.30;;;5.90;99.90;;;;;;4878212;29;20044;-71
2023/04/08 07:34:50;;;;;;;32.15;22.15;;;6.00;99.90;;;;;;4855505;29;20056;-72
2023/04/08 07:37:16;;;;;;;30.83;21.40;;;6.10;99.90;;;;;;4862398;29;20249;-71
2023/04/08 07:39:42;;;;;;;34.55;21.92;;;6.20;99.90;;;;;;4857078;29;20045;-72
2023/04/08 07:42:08;;;;;;;33.93;21.83;;;6.20;99.90;;;;;;4877769;29;20556;-72
2023/04/08 07:44:34;;;;;;;32.47;21.20;;;6.30;99.90;;;;;;4878213;29;20055;-72
2023/04/08 07:47:00;;;;;;;30.63;21.03;;;6.40;99.90;;;;;;4879125;29;20104;-71
2023/04/08 07:49:25;;;;;;;31.60;21.10;;;6.50;99.90;;;;;;4884757;29;20044;-72
2023/04/08 07:51:51;;;;;;;28.73;19.83;;;6.70;99.90;;;;;;4877097;29;20120;-72
2023/04/08 07:54:17;;;;;;;29.80;20.27;;;6.90;99.90;;;;;;4877167;29;20060;-72
2023/04/08 07:56:43;;;;;;;34.07;21.70;;;7.20;99.90;;;;;;4878104;29;20510;-72
2023/04/08 07:59:12;;;;;;;32.13;20.07;;;7.30;99.90;;;;;;4877482;29;20092;-72
2023/04/08 08:01:38;;;;;;;33.47;21.92;;;7.40;99.90;;;;;;4874784;29;20592;-72
2023/04/08 08:04:04;;;;;;;31.90;21.67;;;7.50;99.90;;;;;;4876090;29;20085;-72
2023/04/08 08:06:31;;;;;;;37.93;23.70;;;7.60;99.90;;;;;;4863344;29;20049;-72
2023/04/08 08:08:57;;;;;;;32.25;20.08;;;7.70;99.90;;;;;;4859147;29;20056;-73
2023/04/08 08:11:23;;;;;;;28.75;18.75;;;7.70;99.90;;;;;;4881474;29;20060;-72
2023/04/08 08:13:49;;;;;;;27.27;18.47;;;7.60;99.90;;;;;;4873192;29;20127;-72
2023/04/08 08:16:15;;;;;;;29.67;19.27;;;7.50;99.90;;;;;;4865544;29;20060;-72
2023/04/08 08:18:40;;;;;;;29.53;19.00;;;7.50;99.90;;;;;;4879949;29;20060;-72
2023/04/08 08:21:07;;;;;;;27.10;19.00;;;7.60;99.90;;;;;;4866141;29;20050;-72
2023/04/08 08:23:33;;;;;;;26.45;18.55;;;7.70;99.90;;;;;;4901956;29;20114;-72
2023/04/08 08:26:05;;;;;;;26.63;17.57;;;7.80;99.90;;;;;;4882160;29;20686;-72
2023/04/08 08:28:31;;;;;;;23.38;16.85;;;7.90;99.90;;;;;;4881032;29;20152;-72
2023/04/08 08:30:57;;;;;;;25.63;17.65;;;8.00;99.90;;;;;;4866653;29;20059;-72
2023/04/08 08:33:26;;;;;;;22.87;16.97;;;8.10;99.90;;;;;;4883332;29;20048;-74
2023/04/08 08:35:52;;;;;;;24.23;16.88;;;8.20;99.90;;;;;;4882572;29;20144;-73
2023/04/08 08:38:18;;;;;;;24.60;16.30;;;8.30;99.90;;;;;;4880952;29;20079;-73
2023/04/08 08:40:44;;;;;;;21.73;15.47;;;8.40;99.90;;;;;;4875223;29;20059;-73
2023/04/08 08:43:11;;;;;;;22.30;15.80;;;8.60;99.90;;;;;;4881862;29;20068;-73
2023/04/08 08:45:40;;;;;;;20.00;14.45;;;8.60;99.90;;;;;;4884487;29;20052;-73
2023/04/08 08:48:10;;;;;;;20.83;15.57;;;8.60;99.90;;;;;;4876356;29;20080;-73
2023/04/08 08:50:35;;;;;;;24.50;17.45;;;8.60;99.90;;;;;;4877499;29;20045;-71
2023/04/08 08:53:02;;;;;;;23.57;16.70;;;8.60;99.90;;;;;;4878111;29;20124;-71
2023/04/08 08:55:33;;;;;;;23.40;16.67;;;8.60;99.90;;;;;;4862010;29;20533;-71
2023/04/08 08:58:00;;;;;;;23.42;16.73;;;8.70;99.90;;;;;;4876219;29;20037;-71
2023/04/08 09:00:44;;;;;;;21.75;16.80;;;8.70;99.90;;;;;;4873061;29;20049;-71
2023/04/08 09:03:18;;;;;;;26.70;17.83;;;8.80;99.90;;;;;;4860624;29;20045;-71
2023/04/08 09:05:55;;;;;;;19.95;15.43;;;9.00;99.90;;;;;;4856275;29;20048;-71
2023/04/08 09:08:31;;;;;;;19.77;14.15;;;9.30;99.90;;;;;;4872778;29;20045;-72
2023/04/08 09:11:13;;;;;;;18.10;13.80;;;9.40;99.90;;;;;;4863526;29;20059;-72
2023/04/08 09:13:39;;;;;;;18.20;13.45;;;9.40;99.90;;;;;;4876508;29;20040;-72
2023/04/08 09:16:07;;;;;;;19.85;14.13;;;9.30;99.90;;;;;;4850058;29;20056;-72
2023/04/08 09:18:34;;;;;;;17.77;13.30;;;9.40;99.90;;;;;;4873749;29;20062;-72
2023/04/08 09:21:04;;;;;;;18.45;13.50;;;9.50;99.90;;;;;;4876305;29;20565;-72
2023/04/08 09:23:56;;;;;;;14.90;11.50;;;9.70;99.90;;;;;;4873152;29;20526;-72
2023/04/08 09:26:23;;;;;;;16.60;11.75;;;9.70;99.90;;;;;;4871126;29;20045;-72
2023/04/08 09:29:09;;;;;;;13.02;10.05;;;9.70;99.90;;;;;;4875732;29;20124;-72
2023/04/08 09:31:40;;;;;;;14.75;10.02;;;9.60;99.90;;;;;;4875729;29;20057;-72
2023/04/08 09:34:26;;;;;;;11.95;9.68;;;9.70;99.90;;;;;;4875540;29;20044;-72
2023/04/08 09:36:52;;;;;;;11.27;8.43;;;10.00;99.90;;;;;;4871715;29;20661;-72
2023/04/08 09:39:19;;;;;;;11.57;8.80;;;10.50;99.90;;;;;;4874573;29;20485;-72
2023/04/08 09:41:48;;;;;;;11.32;8.52;;;10.60;99.90;;;;;;4890918;29;20671;-72
2023/04/08 09:44:15;;;;;;;10.43;8.07;;;10.70;99.90;;;;;;4877322;29;20044;-72
2023/04/08 09:46:51;;;;;;;10.40;8.17;;;10.80;99.90;;;;;;4873169;29;20371;-72
2023/04/08 09:49:32;;;;;;;11.30;8.20;;;10.90;99.90;;;;;;4876483;29;20293;-72
2023/04/08 09:52:10;;;;;;;12.83;8.57;;;10.80;99.90;;;;;;4875949;29;20307;-72
2023/04/08 09:54:51;;;;;;;10.20;8.10;;;10.80;99.90;;;;;;4876010;29;20299;-72
2023/04/08 09:57:42;;;;;;;9.60;7.70;;;10.90;99.90;;;;;;4881102;29;20768;-72
2023/04/08 10:00:11;;;;;;;11.17;8.80;;;11.00;99.90;;;;;;4873775;29;20292;-72
2023/04/08 10:02:55;;;;;;;11.40;8.17;;;11.10;99.90;;;;;;4875889;29;20331;-72
2023/04/08 10:05:23;;;;;;;12.03;8.90;;;11.00;99.90;;;;;;4874309;29;20296;-72
2023/04/08 10:07:50;;;;;;;11.43;8.47;;;10.80;99.90;;;;;;4850288;29;20345;-72
2023/04/08 10:10:16;;;;;;;12.63;9.70;;;10.70;99.90;;;;;;4856567;29;20304;-72
2023/04/08 10:12:43;;;;;;;9.90;8.43;;;10.60;99.90;;;;;;4857693;29;20293;-72
2023/04/08 10:15:29;;;;;;;11.63;8.67;;;10.70;99.90;;;;;;4873795;29;20607;-72
2023/04/08 10:18:19;;;;;;;12.33;9.63;;;10.60;99.90;;;;;;4870379;29;20311;-72
2023/04/08 10:20:46;;;;;;;11.73;9.33;;;10.50;99.90;;;;;;4874726;29;20284;-72
2023/04/08 10:23:16;;;;;;;11.20;8.87;;;10.40;99.90;;;;;;4864368;29;20423;-71
2023/04/08 10:25:44;;;;;;;11.90;9.30;;;10.40;99.90;;;;;;4856016;29;20352;-71
2023/04/08 10:28:18;;;;;;;12.60;8.67;;;10.30;99.90;;;;;;4859507;29;20299;-72
2023/04/08 10:30:45;;;;;;;11.73;9.07;;;10.40;99.90;;;;;;4867621;29;20289;-72
2023/04/08 10:33:15;;;;;;;11.60;9.27;;;10.40;99.90;;;;;;4859775;29;20063;-71
2023/04/08 10:35:45;;;;;;;12.13;9.53;;;10.50;99.90;;;;;;4875270;29;20308;-72
2023/04/08 10:38:12;;;;;;;11.93;9.53;;;10.50;99.90;;;;;;4873347;29;20349;-72
2023/04/08 10:40:41;;;;;;;13.63;10.40;;;10.50;99.90;;;;;;4873951;29;20281;-72
2023/04/08 10:43:08;;;;;;;12.13;9.17;;;10.50;99.90;;;;;;4858385;29;20845;-71
2023/04/08 10:45:34;;;;;;;11.60;9.80;;;10.40;99.90;;;;;;4875817;29;20304;-71
2023/04/08 10:48:27;;;;;;;12.27;9.80;;;10.40;99.90;;;;;;4874998;29;20292;-71
2023/04/08 10:51:02;;;;;;;12.10;10.10;;;10.40;99.90;;;;;;4873322;29;20293;-70
2023/04/08 10:53:29;;;;;;;14.23;10.52;;;10.40;99.90;;;;;;4873649;29;20387;-70
2023/04/08 10:56:05;;;;;;;11.03;9.23;;;10.30;99.90;;;;;;4853092;29;20088;-70
2023/04/08 10:58:30;;;;;;;15.57;10.70;;;10.30;99.90;;;;;;4859820;29;20371;-70
2023/04/08 11:01:03;;;;;;;13.10;10.53;;;10.30;99.90;;;;;;4879812;29;20380;-71
2023/04/08 11:03:34;;;;;;;14.10;10.50;;;10.30;99.90;;;;;;4878134;29;20045;-71
2023/04/08 11:06:01;;;;;;;14.70;10.47;;;10.30;99.90;;;;;;4878516;29;20309;-70
2023/04/08 11:08:34;;;;;;;15.07;10.07;;;10.30;99.90;;;;;;4872936;29;20396;-70
2023/04/08 11:11:07;;;;;;;11.90;9.60;;;10.30;99.90;;;;;;4892948;29;20296;-70
2023/04/08 11:13:35;;;;;;;12.33;9.93;;;10.30;99.90;;;;;;4874839;29;20782;-71
2023/04/08 11:16:03;;;;;;;12.63;10.00;;;10.30;99.90;;;;;;4877610;29;20315;-70
2023/04/08 11:18:30;;;;;;;11.53;9.57;;;10.40;99.90;;;;;;4879243;29;20309;-71
2023/04/08 11:20:57;;;;;;;15.07;10.07;;;10.40;99.90;;;;;;4875632;29;20770;-71
2023/04/08 11:23:26;;;;;;;14.80;10.77;;;10.50;99.90;;;;;;4877365;29;20738;-71
2023/04/08 11:25:52;;;;;;;14.07;10.47;;;10.40;99.90;;;;;;4879354;29;20288;-71
2023/04/08 11:28:19;;;;;;;15.90;10.47;;;10.30;99.90;;;;;;4877316;29;20308;-71
2023/04/08 11:30:46;;;;;;;12.90;9.87;;;10.30;99.90;;;;;;4874805;29;20671;-71
2023/04/08 11:33:12;;;;;;;13.50;10.40;;;10.30;99.90;;;;;;4855288;29;20391;-71
2023/04/08 11:35:42;;;;;;;15.03;11.03;;;10.40;99.90;;;;;;4871471;29;20304;-71
2023/04/08 11:38:11;;;;;;;13.80;10.40;;;10.20;99.90;;;;;;4871360;29;20048;-71
2023/04/08 11:40:37;;;;;;;14.30;10.23;;;10.20;99.90;;;;;;4878348;29;20300;-71
2023/04/08 11:43:11;;;;;;;13.57;10.30;;;10.20;99.90;;;;;;4881322;29;20289;-71
2023/04/08 11:45:40;;;;;;;14.87;11.20;;;10.10;99.90;;;;;;4881163;29;20426;-71
2023/04/08 11:48:10;;;;;;;15.13;10.33;;;10.10;99.90;;;;;;4879010;29;20296;-71
2023/04/08 11:50:36;;;;;;;14.03;10.80;;;10.20;99.90;;;;;;4878199;29;20300;-72
2023/04/08 11:53:02;;;;;;;16.13;11.37;;;10.20;99.90;;;;;;4866699;29;21019;-70
2023/04/08 11:55:30;;;;;;;15.00;10.93;;;10.20;99.90;;;;;;4879807;29;20045;-71
2023/04/08 11:58:00;;;;;;;13.73;9.93;;;10.20;99.90;;;;;;4862251;29;20168;-70
2023/04/08 12:00:27;;;;;;;14.40;9.63;;;10.20;99.90;;;;;;4882915;29;20817;-71
2023/04/08 12:02:53;;;;;;;13.33;9.57;;;10.30;99.90;;;;;;4880904;29;20409;-71
2023/04/08 12:05:19;;;;;;;12.63;10.07;;;10.30;99.90;;;;;;4884460;29;20364;-71
2023/04/08 12:07:45;;;;;;;13.43;11.00;;;10.40;99.90;;;;;;4880191;29;20324;-72
2023/04/08 12:10:11;;;;;;;14.43;10.33;;;10.40;99.90;;;;;;4868083;29;20309;-71
2023/04/08 12:12:37;;;;;;;15.17;10.73;;;10.40;99.90;;;;;;4885292;29;20049;-70
2023/04/08 12:15:04;;;;;;;20.80;13.00;;;10.40;99.90;;;;;;4882237;29;20304;-70
2023/04/08 12:17:30;;;;;;;14.03;10.30;;;10.50;99.90;;;;;;4870979;29;20411;-71
2023/04/08 12:19:56;;;;;;;14.90;10.40;;;10.40;99.90;;;;;;4857911;29;20371;-70
2023/04/08 12:22:22;;;;;;;29.03;14.20;;;10.50;99.90;;;;;;4881131;29;20281;-71
2023/04/08 12:24:48;;;;;;;17.97;11.30;;;10.50;99.90;;;;;;4882198;29;20501;-70
2023/04/08 12:27:13;;;;;;;14.30;11.43;;;10.50;99.90;;;;;;4886081;29;20293;-71
2023/04/08 12:29:39;;;;;;;14.97;11.10;;;10.50;99.90;;;;;;4868410;29;20048;-71
2023/04/08 12:32:05;;;;;;;14.77;11.43;;;10.50;99.90;;;;;;4869206;29;20123;-71
2023/04/08 12:34:31;;;;;;;14.83;11.13;;;10.50;99.90;;;;;;4866412;29;20048;-72
2023/04/08 12:36:58;;;;;;;17.27;12.40;;;10.50;99.90;;;;;;4884579;29;20539;-70
2023/04/08 12:39:24;;;;;;;16.03;11.37;;;10.40;99.90;;;;;;4877607;29;20317;-71
2023/04/08 12:41:49;;;;;;;16.30;12.00;;;10.40;99.90;;;;;;4871548;29;20781;-72